Time;durP1;ratioP1;P1;durP2;ratioP2;P2;SDS_P1;SDS_P2;PMS_P1;PMS_P2;Temp;Humidity;BMP_temperature;BMP_pressure;BME280_temperature;BME280_humidity;BME280_pressure;Samples;Min_cycle;Max_cycle;Signal;HPM_P1;HPM_P2
2022/09/03 00:02:12;;;;;;;;;;;20.30;57.70;;;;;;4917431;29;19919;-71
2022/09/03 00:04:46;;;;;;;;;;;20.30;57.70;;;;;;4917571;29;19911;-71
2022/09/03 00:07:19;;;;;;;;;;;20.30;57.50;;;;;;4917430;29;19983;-71
2022/09/03 00:09:54;;;;;;;;;;;20.50;56.40;;;;;;4915922;29;20366;-69
2022/09/03 00:12:26;;;;;;;;;;;20.60;56.20;;;;;;4917272;29;19989;-70
2022/09/03 00:15:12;;;;;;;;;;;20.60;55.90;;;;;;4917154;29;19922;-70
2022/09/03 00:17:44;;;;;;;;;;;20.60;56.80;;;;;;4917049;29;19966;-69
2022/09/03 00:20:19;;;;;;;;;;;20.70;55.70;;;;;;4916932;29;19912;-69
2022/09/03 00:22:49;;;;;;;;;;;20.70;55.60;;;;;;4899964;29;19920;-70
2022/09/03 00:25:36;;;;;;;;;;;20.70;55.70;;;;;;4917211;29;20264;-70
2022/09/03 00:28:03;;;;;;;;;;;20.70;55.80;;;;;;4916905;29;20260;-70
2022/09/03 00:30:29;;;;;;;;;;;20.80;55.40;;;;;;4915425;29;20304;-70
2022/09/03 00:33:05;;;;;;;;;;;20.80;56.00;;;;;;4916756;29;20381;-70
2022/09/03 00:35:34;;;;;;;;;;;20.80;55.50;;;;;;4916942;29;19911;-69
2022/09/03 00:38:00;;;;;;;;;;;20.50;56.30;;;;;;4916530;29;19911;-68
2022/09/03 00:40:25;;;;;;;;;;;20.50;56.30;;;;;;4916684;29;19918;-68
2022/09/03 00:42:56;;;;;;;;;;;20.50;56.50;;;;;;4916881;29;19985;-69
2022/09/03 00:45:40;;;;;;;;;;;20.50;56.60;;;;;;4916560;29;19958;-70
2022/09/03 00:48:14;;;;;;;;;;;20.50;56.50;;;;;;4916475;29;19997;-67
2022/09/03 00:50:59;;;;;;;;;;;20.50;56.70;;;;;;4916492;29;20023;-69
2022/09/03 00:53:44;;;;;;;;;;;20.50;56.40;;;;;;4905605;29;19930;-68
2022/09/03 00:56:27;;;;;;;;;;;20.60;56.30;;;;;;4916369;29;20272;-68
2022/09/03 00:58:54;;;;;;;;;;;20.60;55.90;;;;;;4916800;29;19981;-68
2022/09/03 01:01:22;;;;;;;;;;;20.60;55.90;;;;;;4916515;29;20431;-69
2022/09/03 01:03:54;;;;;;;;;;;20.70;55.70;;;;;;4916518;29;19919;-69
2022/09/03 01:06:32;;;;;;;;;;;20.80;55.50;;;;;;4916221;29;19911;-68
2022/09/03 01:09:11;;;;;;;;;;;20.80;55.40;;;;;;4916070;29;19930;-70
2022/09/03 01:11:48;;;;;;;;;;;20.70;55.20;;;;;;4916205;29;19930;-69
2022/09/03 01:14:39;;;;;;;;;;;20.80;54.80;;;;;;4916057;29;20383;-68
2022/09/03 01:17:05;;;;;;;;;;;20.80;55.10;;;;;;4916115;29;20013;-67
2022/09/03 01:19:34;;;;;;;;;;;20.70;55.50;;;;;;4916004;29;19999;-69
2022/09/03 01:22:19;;;;;;;;;;;20.70;55.50;;;;;;4898779;29;19915;-68
2022/09/03 01:25:04;;;;;;;;;;;20.60;55.80;;;;;;4915622;29;19959;-69
2022/09/03 01:27:35;;;;;;;;;;;20.60;55.90;;;;;;4916200;29;20367;-69
2022/09/03 01:30:19;;;;;;;;;;;20.60;55.80;;;;;;4915807;29;19915;-69
2022/09/03 01:32:45;;;;;;;;;;;20.60;55.60;;;;;;4915922;29;20383;-68
2022/09/03 01:35:15;;;;;;;;;;;20.60;55.70;;;;;;4915903;29;19998;-70
2022/09/03 01:37:57;;;;;;;;;;;20.60;55.80;;;;;;4916194;29;20006;-70
2022/09/03 01:40:22;;;;;;;;;;;20.50;55.80;;;;;;4916031;29;19915;-69
2022/09/03 01:43:14;;;;;;;;;;;20.50;55.90;;;;;;4915729;29;19918;-70
2022/09/03 01:46:00;;;;;;;;;;;20.50;55.70;;;;;;4915982;29;19911;-69
2022/09/03 01:48:56;;;;;;;;;;;20.50;55.70;;;;;;4915742;29;20391;-69
2022/09/03 01:51:23;;;;;;;;;;;20.60;55.60;;;;;;4922926;29;20339;-70
2022/09/03 01:53:52;;;;;;;;;;;20.60;55.40;;;;;;4902642;29;19915;-70
2022/09/03 01:56:36;;;;;;;;;;;20.60;55.50;;;;;;4915905;29;19966;-69
2022/09/03 01:59:10;;;;;;;;;;;20.70;55.50;;;;;;4915733;29;20286;-68
2022/09/03 02:01:38;;;;;;;;;;;20.50;55.90;;;;;;4915796;29;19921;-69
2022/09/03 02:04:13;;;;;;;;;;;20.60;55.60;;;;;;4915550;29;20396;-69
2022/09/03 02:06:39;;;;;;;;;;;20.60;55.70;;;;;;4915784;29;19915;-69
2022/09/03 02:09:04;;;;;;;;;;;20.60;55.50;;;;;;4915397;29;19923;-69
2022/09/03 02:11:30;;;;;;;;;;;20.50;55.80;;;;;;4915731;29;19923;-68
2022/09/03 02:13:58;;;;;;;;;;;20.50;55.80;;;;;;4915558;29;19915;-69
2022/09/03 02:16:27;;;;;;;;;;;20.50;55.80;;;;;;4915543;29;19959;-69
2022/09/03 02:18:58;;;;;;;;;;;20.50;55.90;;;;;;4915489;29;19911;-69
2022/09/03 02:21:25;;;;;;;;;;;20.50;56.10;;;;;;4915718;29;20383;-70
2022/09/03 02:23:51;;;;;;;;;;;20.60;55.90;;;;;;4902309;29;19967;-69
2022/09/03 02:26:21;;;;;;;;;;;20.60;56.00;;;;;;4915541;29;20339;-70
2022/09/03 02:28:47;;;;;;;;;;;20.40;56.30;;;;;;4915500;29;19942;-69
2022/09/03 02:31:13;;;;;;;;;;;20.50;56.20;;;;;;4915321;29;19961;-69
2022/09/03 02:33:39;;;;;;;;;;;20.40;56.60;;;;;;4915585;29;19966;-70
2022/09/03 02:36:06;;;;;;;;;;;20.40;56.60;;;;;;4915745;29;19911;-70
2022/09/03 02:38:32;;;;;;;;;;;20.40;56.70;;;;;;4918948;29;20275;-69
2022/09/03 02:40:58;;;;;;;;;;;20.40;57.00;;;;;;4919012;29;19911;-69
2022/09/03 02:43:33;;;;;;;;;;;20.30;57.30;;;;;;4918756;29;19919;-70
2022/09/03 02:46:00;;;;;;;;;;;20.30;57.30;;;;;;4918866;29;19911;-70
2022/09/03 02:48:26;;;;;;;;;;;20.30;57.40;;;;;;4918845;29;20399;-70
2022/09/03 02:50:51;;;;;;;;;;;20.20;57.70;;;;;;4918707;28;19974;-69
2022/09/03 02:53:17;;;;;;;;;;;20.20;57.30;;;;;;4905143;29;20108;-69
2022/09/03 02:55:42;;;;;;;;;;;20.30;57.40;;;;;;4918875;29;20336;-70
2022/09/03 02:58:08;;;;;;;;;;;20.30;57.30;;;;;;4918673;29;20928;-70
2022/09/03 03:00:37;;;;;;;;;;;20.20;57.40;;;;;;4918463;29;20422;-70
2022/09/03 03:03:04;;;;;;;;;;;20.20;57.30;;;;;;4918285;29;19958;-69
2022/09/03 03:05:40;;;;;;;;;;;20.20;57.30;;;;;;4918349;29;20383;-69
2022/09/03 03:08:07;;;;;;;;;;;20.20;57.80;;;;;;4929662;28;19916;-69
2022/09/03 03:10:34;;;;;;;;;;;20.10;57.70;;;;;;4915524;29;19919;-70
2022/09/03 03:12:59;;;;;;;;;;;20.00;58.00;;;;;;4918469;29;19946;-69
2022/09/03 03:15:26;;;;;;;;;;;20.00;57.70;;;;;;4918459;29;20380;-70
2022/09/03 03:17:54;;;;;;;;;;;20.10;57.80;;;;;;4918259;29;20287;-70
2022/09/03 03:20:20;;;;;;;;;;;20.10;57.80;;;;;;4918289;29;20301;-69
2022/09/03 03:22:45;;;;;;;;;;;20.00;57.60;;;;;;4908853;29;19911;-70
2022/09/03 03:25:11;;;;;;;;;;;20.00;57.90;;;;;;4918662;29;19919;-70
2022/09/03 03:27:40;;;;;;;;;;;20.10;58.00;;;;;;4918140;29;19915;-70
2022/09/03 03:30:08;;;;;;;;;;;20.10;58.00;;;;;;4917877;29;19945;-70
2022/09/03 03:32:34;;;;;;;;;;;20.10;58.20;;;;;;4918272;29;20260;-69
2022/09/03 03:35:00;;;;;;;;;;;20.20;58.00;;;;;;4917923;29;19911;-70
2022/09/03 03:37:25;;;;;;;;;;;20.30;57.60;;;;;;4918079;29;19912;-69
2022/09/03 03:39:51;;;;;;;;;;;20.00;58.60;;;;;;4931487;29;20018;-68
2022/09/03 03:42:16;;;;;;;;;;;19.90;59.20;;;;;;4917912;29;19922;-69
2022/09/03 03:44:42;;;;;;;;;;;20.00;58.90;;;;;;4917769;29;19921;-69
2022/09/03 03:47:08;;;;;;;;;;;20.00;58.80;;;;;;4917923;29;19911;-69
2022/09/03 03:49:34;;;;;;;;;;;19.90;59.50;;;;;;4917130;29;20022;-70
2022/09/03 03:51:59;;;;;;;;;;;19.80;59.70;;;;;;4905879;29;19966;-68
2022/09/03 03:54:25;;;;;;;;;;;19.80;60.10;;;;;;4917522;29;19919;-69
2022/09/03 03:56:50;;;;;;;;;;;19.80;59.80;;;;;;4917501;29;20283;-70
2022/09/03 03:59:16;;;;;;;;;;;19.80;60.30;;;;;;4917583;29;19922;-70
2022/09/03 04:01:41;;;;;;;;;;;19.80;60.40;;;;;;4917473;29;19912;-70
2022/09/03 04:04:07;;;;;;;;;;;19.60;61.20;;;;;;4917577;29;19912;-69
2022/09/03 04:06:32;;;;;;;;;;;19.70;59.40;;;;;;4917385;29;19918;-70
2022/09/03 04:08:58;;;;;;;;;;;19.70;60.60;;;;;;4916966;29;19924;-70
2022/09/03 04:11:24;;;;;;;;;;;19.80;59.00;;;;;;4917357;29;19954;-70
2022/09/03 04:13:50;;;;;;;;;;;20.00;57.70;;;;;;4917310;29;20418;-70
2022/09/03 04:16:19;;;;;;;;;;;20.00;57.60;;;;;;4917113;29;19911;-69
2022/09/03 04:18:46;;;;;;;;;;;20.00;57.80;;;;;;4917018;29;19926;-70
2022/09/03 04:21:29;;;;;;;;;;;20.00;58.00;;;;;;4916989;28;19963;-70
2022/09/03 04:23:56;;;;;;;;;;;19.90;58.70;;;;;;4908064;29;19973;-70
2022/09/03 04:26:22;;;;;;;;;;;19.60;60.60;;;;;;4917014;29;19911;-70
2022/09/03 04:28:48;;;;;;;;;;;19.40;60.60;;;;;;4916980;29;20358;-69
2022/09/03 04:31:14;;;;;;;;;;;19.40;61.70;;;;;;4916740;29;19927;-70
2022/09/03 04:33:41;;;;;;;;;;;19.40;61.90;;;;;;4916851;29;20359;-70
2022/09/03 04:36:06;;;;;;;;;;;19.40;62.00;;;;;;4916841;29;20472;-70
2022/09/03 04:38:36;;;;;;;;;;;19.30;61.50;;;;;;4928266;28;20006;-70
2022/09/03 04:41:03;;;;;;;;;;;19.20;61.40;;;;;;4909566;29;19934;-69
2022/09/03 04:43:28;;;;;;;;;;;19.30;60.40;;;;;;4916584;29;20005;-70
2022/09/03 04:45:58;;;;;;;;;;;19.50;58.40;;;;;;4916836;29;20026;-69
2022/09/03 04:48:23;;;;;;;;;;;19.40;59.60;;;;;;4916573;29;19918;-70
2022/09/03 04:50:49;;;;;;;;;;;19.30;59.40;;;;;;4916291;29;19923;-70
2022/09/03 04:53:14;;;;;;;;;;;19.30;59.30;;;;;;4906534;29;19915;-69
2022/09/03 04:55:40;;;;;;;;;;;19.40;58.40;;;;;;4916552;29;19934;-69
2022/09/03 04:58:08;;;;;;;;;;;19.50;58.00;;;;;;4916462;29;19915;-69
2022/09/03 05:00:37;;;;;;;;;;;19.60;57.50;;;;;;4915386;29;19915;-69
2022/09/03 05:03:04;;;;;;;;;;;19.60;58.40;;;;;;4916403;29;20339;-70
2022/09/03 05:05:32;;;;;;;;;;;19.70;58.40;;;;;;4916304;29;19955;-70
2022/09/03 05:08:06;;;;;;;;;;;19.70;57.20;;;;;;4916327;29;19942;-69
2022/09/03 05:10:32;;;;;;;;;;;19.80;56.80;;;;;;4914454;29;20383;-70
2022/09/03 05:13:02;;;;;;;;;;;19.90;57.30;;;;;;4916348;29;19915;-69
2022/09/03 05:15:28;;;;;;;;;;;19.90;58.10;;;;;;4916341;29;19911;-70
2022/09/03 05:17:58;;;;;;;;;;;19.80;56.80;;;;;;4916257;29;20391;-69
2022/09/03 05:20:24;;;;;;;;;;;19.80;57.10;;;;;;4916306;29;19912;-69
2022/09/03 05:22:49;;;;;;;;;;;19.80;57.50;;;;;;4908659;29;19918;-69
2022/09/03 05:25:16;;;;;;;;;;;19.90;57.00;;;;;;4916269;29;19966;-69
2022/09/03 05:27:42;;;;;;;;;;;20.00;57.00;;;;;;4914790;29;19922;-69
2022/09/03 05:30:08;;;;;;;;;;;19.80;57.00;;;;;;4915903;29;19915;-69
2022/09/03 05:32:33;;;;;;;;;;;19.80;57.40;;;;;;4916168;29;19962;-69
2022/09/03 05:34:59;;;;;;;;;;;19.90;57.20;;;;;;4916160;28;19954;-68
2022/09/03 05:37:24;;;;;;;;;;;20.00;57.00;;;;;;4916046;29;19911;-69
2022/09/03 05:39:50;;;;;;;;;;;20.00;57.10;;;;;;4915836;29;19922;-70
2022/09/03 05:42:16;;;;;;;;;;;20.10;57.10;;;;;;4916140;29;19911;-69
2022/09/03 05:44:42;;;;;;;;;;;20.00;56.70;;;;;;4915852;29;20303;-69
2022/09/03 05:47:08;;;;;;;;;;;20.00;57.30;;;;;;4915986;29;19915;-69
2022/09/03 05:49:33;;;;;;;;;;;20.10;56.90;;;;;;4915993;29;20316;-65
2022/09/03 05:51:59;;;;;;;;;;;20.10;57.40;;;;;;4903174;29;19919;-67
2022/09/03 05:54:25;;;;;;;;;;;20.20;56.70;;;;;;4915817;29;19926;-65
2022/09/03 05:56:50;;;;;;;;;;;20.40;56.50;;;;;;4915732;29;19915;-64
2022/09/03 05:59:16;;;;;;;;;;;20.40;56.30;;;;;;4915990;29;19911;-65
2022/09/03 06:01:44;;;;;;;;;;;20.50;56.20;;;;;;4915817;29;19911;-64
2022/09/03 06:04:10;;;;;;;;;;;20.50;56.10;;;;;;4915586;29;19957;-64
2022/09/03 06:06:37;;;;;;;;;;;20.60;56.00;;;;;;4915776;29;19915;-64
2022/09/03 06:09:04;;;;;;;;;;;20.90;55.60;;;;;;4914230;29;19929;-66
2022/09/03 06:11:30;;;;;;;;;;;21.30;55.00;;;;;;4916592;29;19978;-63
2022/09/03 06:13:57;;;;;;;;;;;21.70;54.10;;;;;;4919163;29;19922;-63
2022/09/03 06:16:23;;;;;;;;;;;22.20;52.80;;;;;;4918312;29;19922;-65
2022/09/03 06:18:48;;;;;;;;;;;22.60;51.80;;;;;;4919337;29;19911;-67
2022/09/03 06:21:14;;;;;;;;;;;22.90;50.90;;;;;;4919091;29;20450;-64
2022/09/03 06:23:40;;;;;;;;;;;23.10;50.60;;;;;;4904212;29;19922;-64
2022/09/03 06:26:09;;;;;;;;;;;23.40;50.10;;;;;;4919239;29;19915;-65
2022/09/03 06:28:36;;;;;;;;;;;23.60;49.50;;;;;;4919225;29;19954;-66
2022/09/03 06:31:06;;;;;;;;;;;23.80;48.90;;;;;;4919367;29;19919;-67
2022/09/03 06:33:32;;;;;;;;;;;24.00;48.40;;;;;;4919182;29;19911;-65
2022/09/03 06:35:58;;;;;;;;;;;24.10;48.10;;;;;;4919414;29;19912;-66
2022/09/03 06:38:25;;;;;;;;;;;24.20;47.50;;;;;;4919144;29;19915;-68
2022/09/03 06:40:52;;;;;;;;;;;24.20;47.20;;;;;;4921572;29;19911;-67
2022/09/03 06:43:17;;;;;;;;;;;24.20;46.80;;;;;;4929810;29;19919;-66
2022/09/03 06:45:43;;;;;;;;;;;24.20;46.80;;;;;;4919565;29;19939;-66
2022/09/03 06:48:08;;;;;;;;;;;23.50;48.20;;;;;;4921033;29;19914;-67
2022/09/03 06:50:34;;;;;;;;;;;23.10;49.50;;;;;;4919261;29;20013;-64
2022/09/03 06:52:59;;;;;;;;;;;23.20;49.60;;;;;;4908154;29;19970;-69
2022/09/03 06:55:25;;;;;;;;;;;23.00;49.60;;;;;;4916320;29;19930;-66
2022/09/03 06:57:55;;;;;;;;;;;22.90;50.30;;;;;;4917739;29;19962;-65
2022/09/03 07:00:20;;;;;;;;;;;23.00;50.10;;;;;;4917423;29;19926;-67
2022/09/03 07:02:47;;;;;;;;;;;22.80;51.00;;;;;;4917776;29;19911;-64
2022/09/03 07:05:13;;;;;;;;;;;23.00;50.80;;;;;;4918742;29;19918;-67
2022/09/03 07:07:38;;;;;;;;;;;23.20;50.50;;;;;;4918268;29;20368;-67
2022/09/03 07:10:05;;;;;;;;;;;23.30;50.20;;;;;;4918237;29;19930;-64
2022/09/03 07:12:31;;;;;;;;;;;23.40;50.30;;;;;;4918501;29;19979;-66
2022/09/03 07:14:58;;;;;;;;;;;23.50;50.00;;;;;;4916253;29;20163;-73
2022/09/03 07:17:24;;;;;;;;;;;23.40;50.40;;;;;;4916964;29;19915;-71
2022/09/03 07:19:50;;;;;;;;;;;23.50;50.50;;;;;;4916779;29;19915;-72
2022/09/03 07:22:15;;;;;;;;;;;23.50;50.10;;;;;;4900577;29;19937;-68
2022/09/03 07:24:41;;;;;;;;;;;23.60;51.20;;;;;;4915679;29;19950;-67
2022/09/03 07:27:07;;;;;;;;;;;23.80;51.10;;;;;;4916851;29;19970;-65
2022/09/03 07:29:33;;;;;;;;;;;24.10;50.20;;;;;;4916649;29;20419;-64
2022/09/03 07:31:59;;;;;;;;;;;24.40;49.80;;;;;;4915350;29;19927;-63
2022/09/03 07:34:25;;;;;;;;;;;24.50;48.60;;;;;;4916326;29;19922;-65
2022/09/03 07:36:52;;;;;;;;;;;24.50;48.50;;;;;;4916694;29;19995;-64
2022/09/03 07:39:18;;;;;;;;;;;24.60;48.10;;;;;;4916456;29;19919;-70
2022/09/03 07:41:46;;;;;;;;;;;24.80;47.10;;;;;;4917025;29;19974;-67
2022/09/03 07:44:14;;;;;;;;;;;24.50;47.40;;;;;;4916688;29;19915;-62
2022/09/03 07:46:40;;;;;;;;;;;24.70;48.00;;;;;;4916892;29;19915;-65
2022/09/03 07:49:05;;;;;;;;;;;24.90;46.90;;;;;;4916939;29;19967;-64
2022/09/03 07:51:34;;;;;;;;;;;25.00;47.60;;;;;;4916636;29;20400;-66
2022/09/03 07:54:05;;;;;;;;;;;25.20;46.20;;;;;;4896400;29;20435;-68
2022/09/03 07:56:31;;;;;;;;;;;25.00;46.00;;;;;;4916700;29;20006;-64
2022/09/03 07:58:58;;;;;;;;;;;25.30;46.60;;;;;;4916468;29;19997;-63
2022/09/03 08:01:25;;;;;;;;;;;25.30;45.90;;;;;;4916608;29;19915;-64
2022/09/03 08:03:54;;;;;;;;;;;25.30;45.60;;;;;;4915375;29;20002;-65
2022/09/03 08:06:21;;;;;;;;;;;25.50;45.40;;;;;;4916427;29;19950;-67
2022/09/03 08:08:47;;;;;;;;;;;25.80;45.60;;;;;;4916154;29;19934;-65
2022/09/03 08:11:14;;;;;;;;;;;25.90;45.80;;;;;;4917052;29;19928;-67
2022/09/03 08:13:41;;;;;;;;;;;26.00;46.40;;;;;;4917416;29;19915;-66
2022/09/03 08:16:08;;;;;;;;;;;26.10;46.40;;;;;;4916733;29;19958;-74
2022/09/03 08:18:37;;;;;;;;;;;26.20;45.80;;;;;;4916162;29;20328;-67
2022/09/03 08:21:14;;;;;;;;;;;26.10;46.40;;;;;;4916016;29;20074;-69
2022/09/03 08:23:41;;;;;;;;;;;26.20;47.00;;;;;;4900366;29;19911;-67
2022/09/03 08:26:07;;;;;;;;;;;26.40;45.70;;;;;;4916215;29;20391;-69
2022/09/03 08:28:33;;;;;;;;;;;26.50;45.80;;;;;;4916095;29;20371;-66
2022/09/03 08:31:10;;;;;;;;;;;26.60;45.40;;;;;;4916636;29;19919;-70
2022/09/03 08:33:36;;;;;;;;;;;26.50;43.90;;;;;;4916813;29;20058;-65
2022/09/03 08:36:06;;;;;;;;;;;26.60;44.60;;;;;;4916710;29;20002;-66
2022/09/03 08:38:32;;;;;;;;;;;26.60;43.80;;;;;;4916862;29;20287;-69
2022/09/03 08:41:15;;;;;;;;;;;26.60;43.10;;;;;;4916795;29;19911;-64
2022/09/03 08:44:04;;;;;;;;;;;26.60;42.50;;;;;;4916680;29;19916;-65
2022/09/03 08:46:41;;;;;;;;;;;26.70;43.00;;;;;;4916524;29;20367;-70
2022/09/03 08:49:08;;;;;;;;;;;26.70;43.20;;;;;;4916649;29;19962;-70
2022/09/03 08:51:36;;;;;;;;;;;26.70;43.30;;;;;;4916627;29;19944;-68
2022/09/03 08:54:02;;;;;;;;;;;26.70;43.80;;;;;;4905961;29;20288;-69
2022/09/03 08:56:29;;;;;;;;;;;26.70;42.90;;;;;;4916426;29;19922;-67
2022/09/03 08:58:55;;;;;;;;;;;26.70;43.50;;;;;;4917054;29;19919;-70
2022/09/03 09:01:33;;;;;;;;;;;26.70;42.50;;;;;;4916550;29;19915;-68
2022/09/03 09:04:17;;;;;;;;;;;26.70;42.20;;;;;;4916388;29;19918;-65
2022/09/03 09:07:02;;;;;;;;;;;26.70;43.00;;;;;;4916577;29;19912;-70
2022/09/03 09:09:28;;;;;;;;;;;26.70;42.80;;;;;;4916273;29;20324;-71
2022/09/03 09:12:12;;;;;;;;;;;26.70;42.80;;;;;;4916399;29;19919;-69
2022/09/03 09:14:40;;;;;;;;;;;26.70;42.80;;;;;;4916505;29;20331;-71
2022/09/03 09:17:26;;;;;;;;;;;26.70;42.00;;;;;;4916179;29;19954;-71
2022/09/03 09:19:58;;;;;;;;;;;26.70;43.10;;;;;;4902814;29;19915;-70
2022/09/03 09:22:45;;;;;;;;;;;26.60;44.60;;;;;;4903190;29;19911;-71
2022/09/03 09:25:14;;;;;;;;;;;26.50;45.30;;;;;;4916169;29;19958;-71
2022/09/03 09:27:45;;;;;;;;;;;26.50;45.90;;;;;;4916263;29;19962;-71
2022/09/03 09:30:13;;;;;;;;;;;26.40;46.10;;;;;;4916242;29;19911;-66
2022/09/03 09:32:38;;;;;;;;;;;26.40;46.80;;;;;;4916137;29;19922;-69
2022/09/03 09:35:07;;;;;;;;;;;26.40;47.30;;;;;;4915759;29;20005;-66
2022/09/03 09:37:34;;;;;;;;;;;26.30;47.60;;;;;;4916166;29;19915;-69
2022/09/03 09:39:59;;;;;;;;;;;26.20;46.90;;;;;;4915720;29;19919;-71
2022/09/03 09:42:26;;;;;;;;;;;26.20;47.60;;;;;;4916384;29;19916;-67
2022/09/03 09:44:52;;;;;;;;;;;26.20;48.80;;;;;;4915828;29;20371;-71
2022/09/03 09:47:17;;;;;;;;;;;26.10;48.50;;;;;;4915573;29;19942;-67
2022/09/03 09:49:43;;;;;;;;;;;25.90;48.90;;;;;;4915823;29;20352;-72
2022/09/03 09:52:10;;;;;;;;;;;25.80;50.00;;;;;;4902315;29;19934;-72
2022/09/03 09:54:36;;;;;;;;;;;25.80;50.60;;;;;;4915974;29;20276;-63
2022/09/03 09:57:07;;;;;;;;;;;25.80;49.60;;;;;;4915732;29;19912;-63
2022/09/03 09:59:33;;;;;;;;;;;25.80;50.50;;;;;;4915867;29;19915;-63
2022/09/03 10:02:22;;;;;;;;;;;25.80;51.10;;;;;;4915925;29;19915;-64
2022/09/03 10:04:48;;;;;;;;;;;25.80;51.70;;;;;;4915931;29;19919;-64
2022/09/03 10:07:25;;;;;;;;;;;25.80;51.60;;;;;;4915513;29;19915;-64
2022/09/03 10:09:57;;;;;;;;;;;25.80;49.70;;;;;;4915532;29;20299;-65
2022/09/03 10:12:24;;;;;;;;;;;25.80;49.70;;;;;;4915633;29;19958;-64
2022/09/03 10:14:54;;;;;;;;;;;25.80;50.10;;;;;;4915766;29;19918;-68
2022/09/03 10:17:27;;;;;;;;;;;25.80;50.20;;;;;;4916013;29;19919;-68
2022/09/03 10:20:26;;;;;;;;;;;25.80;49.10;;;;;;4915566;29;20348;-65
2022/09/03 10:22:54;;;;;;;;;;;25.80;48.90;;;;;;4903614;29;19915;-68
2022/09/03 10:25:21;;;;;;;;;;;25.80;49.60;;;;;;4915631;29;19918;-68
2022/09/03 10:27:46;;;;;;;;;;;25.80;49.40;;;;;;4915756;29;19966;-64
2022/09/03 10:30:15;;;;;;;;;;;25.80;49.80;;;;;;4915519;29;19915;-69
2022/09/03 10:32:48;;;;;;;;;;;25.90;48.60;;;;;;4915792;29;19967;-68
2022/09/03 10:35:13;;;;;;;;;;;25.90;48.40;;;;;;4915419;29;19997;-70
2022/09/03 10:37:48;;;;;;;;;;;25.90;47.90;;;;;;4915393;29;20346;-68
2022/09/03 10:40:14;;;;;;;;;;;25.90;48.50;;;;;;4915414;29;19911;-68
2022/09/03 10:42:44;;;;;;;;;;;25.90;48.50;;;;;;4914405;29;19940;-69
2022/09/03 10:45:13;;;;;;;;;;;25.90;47.50;;;;;;4912031;29;19968;-67
2022/09/03 10:47:41;;;;;;;;;;;25.90;47.10;;;;;;4914830;29;19911;-65
2022/09/03 10:50:15;;;;;;;;;;;25.90;47.80;;;;;;4914588;29;19912;-64
2022/09/03 10:52:56;;;;;;;;;;;25.90;47.70;;;;;;4898166;29;19911;-66
2022/09/03 10:55:29;;;;;;;;;;;25.90;47.90;;;;;;4902894;29;19915;-64
2022/09/03 10:58:12;;;;;;;;;;;25.90;49.10;;;;;;4914328;29;19954;-69
2022/09/03 11:00:40;;;;;;;;;;;25.90;48.10;;;;;;4917565;29;19994;-71
2022/09/03 11:03:11;;;;;;;;;;;25.90;48.30;;;;;;4917641;29;20694;-66
2022/09/03 11:05:41;;;;;;;;;;;25.80;49.30;;;;;;4917753;29;20317;-68
2022/09/03 11:08:25;;;;;;;;;;;25.90;49.50;;;;;;4917435;29;19949;-65
2022/09/03 11:10:53;;;;;;;;;;;25.90;50.20;;;;;;4917633;29;19962;-67
2022/09/03 11:13:25;;;;;;;;;;;25.90;48.90;;;;;;4916289;29;19919;-69
2022/09/03 11:15:53;;;;;;;;;;;25.90;51.90;;;;;;4917630;29;19914;-69
2022/09/03 11:18:19;;;;;;;;;;;25.90;50.20;;;;;;4917545;29;19911;-65
2022/09/03 11:20:48;;;;;;;;;;;25.90;50.50;;;;;;4917838;29;20010;-66
2022/09/03 11:23:15;;;;;;;;;;;25.90;50.60;;;;;;4913278;29;19918;-66
2022/09/03 11:25:44;;;;;;;;;;;25.90;50.90;;;;;;4918599;29;20015;-66
2022/09/03 11:28:17;;;;;;;;;;;25.90;51.10;;;;;;4947470;29;19917;-66
2022/09/03 11:30:48;;;;;;;;;;;25.90;50.80;;;;;;4938240;29;19924;-66
2022/09/03 11:33:17;;;;;;;;;;;25.90;51.40;;;;;;4936010;29;19915;-70
2022/09/03 11:35:43;;;;;;;;;;;25.90;51.00;;;;;;4913409;29;19939;-68
2022/09/03 11:38:19;;;;;;;;;;;25.90;51.20;;;;;;4908631;29;19915;-67
2022/09/03 11:41:01;;;;;;;;;;;26.00;51.50;;;;;;4914326;29;19919;-66
2022/09/03 11:43:28;;;;;;;;;;;25.90;51.20;;;;;;4907133;28;19912;-68
2022/09/03 11:46:11;;;;;;;;;;;26.00;50.90;;;;;;4911621;29;19921;-69
2022/09/03 11:48:38;;;;;;;;;;;26.00;49.90;;;;;;4909097;29;19964;-72
2022/09/03 11:51:16;;;;;;;;;;;26.00;50.10;;;;;;4916941;29;19923;-65
2022/09/03 11:53:52;;;;;;;;;;;26.00;49.90;;;;;;4907254;29;19915;-68
2022/09/03 11:56:18;;;;;;;;;;;26.00;50.60;;;;;;4916578;29;19919;-67
2022/09/03 11:58:43;;;;;;;;;;;26.00;50.60;;;;;;4917107;29;20308;-70
2022/09/03 12:01:10;;;;;;;;;;;26.10;49.80;;;;;;4916492;29;20014;-69
2022/09/03 12:03:55;;;;;;;;;;;26.10;49.50;;;;;;4916909;29;19994;-65
2022/09/03 12:06:30;;;;;;;;;;;26.10;49.70;;;;;;4916575;29;19918;-65
2022/09/03 12:08:56;;;;;;;;;;;26.10;49.60;;;;;;4916349;29;19923;-63
2022/09/03 12:11:24;;;;;;;;;;;26.00;50.10;;;;;;4916117;29;20414;-63
2022/09/03 12:14:10;;;;;;;;;;;26.00;50.20;;;;;;4915854;29;19922;-63
2022/09/03 12:16:45;;;;;;;;;;;26.00;50.20;;;;;;4914412;29;19915;-63
2022/09/03 12:19:20;;;;;;;;;;;26.00;50.70;;;;;;4913826;29;19915;-69
2022/09/03 12:21:48;;;;;;;;;;;26.00;49.80;;;;;;4912377;29;20035;-65
2022/09/03 12:24:14;;;;;;;;;;;26.00;49.60;;;;;;4915996;29;19911;-65
2022/09/03 12:26:41;;;;;;;;;;;26.00;49.90;;;;;;4916060;29;19950;-69
2022/09/03 12:29:19;;;;;;;;;;;26.10;49.80;;;;;;4918423;29;20330;-68
2022/09/03 12:31:47;;;;;;;;;;;26.10;49.70;;;;;;4913815;29;19930;-68
2022/09/03 12:34:15;;;;;;;;;;;26.10;49.70;;;;;;4915729;29;19962;-66
2022/09/03 12:36:42;;;;;;;;;;;26.10;50.30;;;;;;4915850;29;20371;-64
2022/09/03 12:39:08;;;;;;;;;;;26.10;50.20;;;;;;4917335;29;20017;-68
2022/09/03 12:41:34;;;;;;;;;;;26.10;50.00;;;;;;4915726;29;19965;-68
2022/09/03 12:44:00;;;;;;;;;;;26.10;50.30;;;;;;4915311;29;19947;-69
2022/09/03 12:46:29;;;;;;;;;;;26.10;49.50;;;;;;4915777;29;19915;-67
2022/09/03 12:48:56;;;;;;;;;;;26.10;49.80;;;;;;4915065;29;20374;-65
2022/09/03 12:51:22;;;;;;;;;;;26.10;50.10;;;;;;4915491;29;19926;-69
2022/09/03 12:53:49;;;;;;;;;;;26.10;49.90;;;;;;4908323;29;20335;-67
2022/09/03 12:56:15;;;;;;;;;;;26.10;49.40;;;;;;4915313;29;19927;-68
2022/09/03 12:59:00;;;;;;;;;;;26.10;49.70;;;;;;4915161;29;19915;-68
2022/09/03 13:01:30;;;;;;;;;;;26.10;49.60;;;;;;4914041;29;19919;-66
2022/09/03 13:03:56;;;;;;;;;;;26.20;48.60;;;;;;4914376;29;19919;-65
2022/09/03 13:06:24;;;;;;;;;;;26.20;49.10;;;;;;4913719;29;19920;-66
2022/09/03 13:08:53;;;;;;;;;;;26.10;49.10;;;;;;4913780;29;19962;-67
2022/09/03 13:11:19;;;;;;;;;;;26.10;48.70;;;;;;4913000;29;19960;-65
2022/09/03 13:14:11;;;;;;;;;;;26.10;48.50;;;;;;4914677;29;20014;-66
2022/09/03 13:16:37;;;;;;;;;;;26.10;48.60;;;;;;4912283;29;20520;-70
2022/09/03 13:19:13;;;;;;;;;;;26.10;48.80;;;;;;4915072;29;19933;-73
2022/09/03 13:21:54;;;;;;;;;;;26.10;49.00;;;;;;4914333;29;19911;-71
2022/09/03 13:24:38;;;;;;;;;;;26.10;48.70;;;;;;4915020;29;20363;-64
2022/09/03 13:27:10;;;;;;;;;;;26.10;48.70;;;;;;4915266;29;19915;-66
2022/09/03 13:29:38;;;;;;;;;;;26.10;49.80;;;;;;4915322;29;20593;-69
2022/09/03 13:32:22;;;;;;;;;;;26.10;49.90;;;;;;4915492;29;20295;-69
2022/09/03 13:34:56;;;;;;;;;;;26.00;50.20;;;;;;4915824;29;19918;-65
2022/09/03 13:37:39;;;;;;;;;;;26.00;50.00;;;;;;4915492;29;20342;-64
2022/09/03 13:40:17;;;;;;;;;;;26.00;50.10;;;;;;4915503;29;19934;-73
2022/09/03 13:42:51;;;;;;;;;;;26.00;50.30;;;;;;4914670;29;19927;-74
2022/09/03 13:45:24;;;;;;;;;;;26.00;50.60;;;;;;4915779;29;20010;-71
2022/09/03 13:51:24;;;;;;;;;;;26.00;50.70;;;;;;4932862;29;20398;-71
2022/09/03 13:54:08;;;;;;;;;;;26.00;50.60;;;;;;4906110;29;19922;-72
2022/09/03 13:56:36;;;;;;;;;;;26.00;51.00;;;;;;4915615;29;19915;-68
2022/09/03 13:59:09;;;;;;;;;;;26.00;51.80;;;;;;4915223;29;19934;-71
2022/09/03 14:01:40;;;;;;;;;;;26.00;52.50;;;;;;4915229;29;19966;-63
2022/09/03 14:04:13;;;;;;;;;;;26.00;52.30;;;;;;4915238;29;20434;-66
2022/09/03 14:06:39;;;;;;;;;;;26.00;51.90;;;;;;4914999;29;19950;-62
2022/09/03 14:09:13;;;;;;;;;;;26.00;51.90;;;;;;4915104;29;19977;-64
2022/09/03 14:12:00;;;;;;;;;;;26.00;52.00;;;;;;4914975;29;19970;-61
2022/09/03 14:14:25;;;;;;;;;;;26.00;50.90;;;;;;4915367;29;19917;-62
2022/09/03 14:17:03;;;;;;;;;;;26.00;51.20;;;;;;4915204;29;19915;-70
2022/09/03 14:19:36;;;;;;;;;;;26.10;51.50;;;;;;4915171;29;20355;-72
2022/09/03 14:22:16;;;;;;;;;;;26.10;51.40;;;;;;4902904;29;19931;-64
2022/09/03 14:24:41;;;;;;;;;;;26.00;51.40;;;;;;4915621;29;19911;-62
2022/09/03 14:27:07;;;;;;;;;;;26.00;50.70;;;;;;4915595;29;20385;-63
2022/09/03 14:29:34;;;;;;;;;;;26.00;51.10;;;;;;4914633;29;19921;-62
2022/09/03 14:32:18;;;;;;;;;;;26.00;51.20;;;;;;4915537;29;19926;-71
2022/09/03 14:34:46;;;;;;;;;;;26.00;51.30;;;;;;4919368;29;19959;-65
2022/09/03 14:37:24;;;;;;;;;;;26.00;50.30;;;;;;4919110;29;19926;-65